Boroughbridge, United Kingdom
Current Conditions -  °F | °C
As of 11:50 PM on Wednesday 28 Jan 2015 (Local Time) from EGXD Reporting Station
Clear Clear  
Wind Chill: 26°   Ceiling: Unl
Heat Index: 37°   Visibility: 6mi
Dew Point: 27°   Wind: 24mph
Humidity: 65%   Direction: 270°W
Pressure: 29.18"   Gusts: 36mph
Location:  54.09°N, 1.4°W
Report Text: EGXD 282350Z 27021G31KT CAVOK 03/M03 Q0988 BLU
Loading
Personal Weather Stations






























Interactive Weather Map New forecast layout! Learn more

10-Day Weather Forecast

Advertisements
Track Severe Weather on mobile